createdAt,value
2022-08-21T00:00:17.789Z,96473.56
2022-08-21T00:00:49.837Z,96476.53
2022-08-21T00:01:25.769Z,96485.84
2022-08-21T00:01:57.638Z,96486.59
2022-08-21T00:02:29.541Z,96483.84
2022-08-21T00:03:07.576Z,96476.97
2022-08-21T00:03:39.909Z,96480.84
2022-08-21T00:04:14.620Z,96479.66
2022-08-21T00:04:57.504Z,96485.78
2022-08-21T00:05:30.810Z,96489.00
2022-08-21T00:06:03.393Z,96482.78
2022-08-21T00:06:36.589Z,96478.91
2022-08-21T00:07:08.389Z,96488.56
2022-08-21T00:07:40.282Z,96485.06
2022-08-21T00:08:12.348Z,96488.53
2022-08-21T00:08:44.552Z,96478.94
2022-08-21T00:09:16.575Z,96477.41
2022-08-21T00:09:48.668Z,96479.75
2022-08-21T00:10:20.992Z,96482.88
2022-08-21T00:10:52.847Z,96478.31
2022-08-21T00:11:24.596Z,96473.25
2022-08-21T00:11:56.423Z,96479.75
2022-08-21T00:12:28.260Z,96480.50
2022-08-21T00:13:01.692Z,96480.91
2022-08-21T00:13:33.832Z,96478.94
2022-08-21T00:14:07.126Z,96480.44
2022-08-21T00:14:38.969Z,96475.81
2022-08-21T00:15:15.506Z,96480.56
2022-08-21T00:15:49.556Z,96477.78
2022-08-21T00:16:21.622Z,96485.38
2022-08-21T00:16:53.708Z,96482.72
2022-08-21T00:17:29.101Z,96477.38
2022-08-21T00:18:01.422Z,96477.78
2022-08-21T00:18:34.033Z,96478.38
2022-08-21T00:19:07.171Z,96477.38
2022-08-21T00:19:39.048Z,96477.06
2022-08-21T00:20:13.672Z,96482.34
2022-08-21T00:20:46.827Z,96481.94
2022-08-21T00:21:18.572Z,96477.75
2022-08-21T00:21:50.338Z,96472.41
2022-08-21T00:22:22.086Z,96471.31
2022-08-21T00:22:53.969Z,96465.16
2022-08-21T00:23:26.516Z,96467.88
2022-08-21T00:23:58.318Z,96464.38
2022-08-21T00:24:30.172Z,96468.25
2022-08-21T00:25:03.346Z,96466.25
2022-08-21T00:25:35.674Z,96470.09
2022-08-21T00:26:07.567Z,96466.69
2022-08-21T00:26:40.007Z,96471.66
2022-08-21T00:27:11.776Z,96470.56
2022-08-21T00:27:44.230Z,96472.00
2022-08-21T00:28:16.394Z,96470.81
2022-08-21T00:28:49.848Z,96473.09
2022-08-21T00:29:22.102Z,96473.41
2022-08-21T00:29:54.627Z,96474.09
2022-08-21T00:30:27.610Z,96475.28
2022-08-21T00:31:00.269Z,96468.03
2022-08-21T00:31:32.186Z,96471.13
2022-08-21T00:32:04.736Z,96469.19
2022-08-21T00:32:39.692Z,96468.13
2022-08-21T00:33:13.029Z,96459.66
2022-08-21T00:33:45.073Z,96470.81
2022-08-21T00:34:16.808Z,96463.03
2022-08-21T00:34:48.562Z,96469.63
2022-08-21T00:35:30.218Z,96466.19
2022-08-21T00:36:02.081Z,96466.59
2022-08-21T00:36:34.936Z,96468.94
2022-08-21T00:37:07.531Z,96465.91
2022-08-21T00:37:40.820Z,96458.53
2022-08-21T00:38:13.075Z,96459.66
2022-08-21T00:38:44.919Z,96453.47
2022-08-21T00:39:17.033Z,96462.00
2022-08-21T00:39:49.566Z,96464.25
2022-08-21T00:40:27.077Z,96464.25
2022-08-21T00:41:02.776Z,96458.09
2022-08-21T00:41:54.031Z,96466.94
2022-08-21T00:42:26.352Z,96458.09
2022-08-21T00:42:58.523Z,96461.22
2022-08-21T00:43:34.683Z,96460.09
2022-08-21T00:44:09.406Z,96460.47
2022-08-21T00:44:46.229Z,96464.28
2022-08-21T00:45:19.568Z,96464.97
2022-08-21T00:45:51.964Z,96469.91
2022-08-21T00:46:27.444Z,96464.56
2022-08-21T00:47:00.382Z,96458.44
2022-08-21T00:47:32.339Z,96461.56
2022-08-21T00:48:04.596Z,96463.44
2022-08-21T00:48:36.585Z,96463.91
2022-08-21T00:49:09.612Z,96460.38
2022-08-21T00:49:41.596Z,96461.88
2022-08-21T00:50:21.452Z,96466.16
2022-08-21T00:50:57.874Z,96465.44
2022-08-21T00:51:38.594Z,96460.47
2022-08-21T00:52:16.641Z,96458.97
2022-08-21T00:52:50.370Z,96462.31
2022-08-21T00:53:23.467Z,96461.81
2022-08-21T00:54:00.747Z,96464.50
2022-08-21T00:54:33.215Z,96463.28
2022-08-21T00:55:09.328Z,96472.66
2022-08-21T00:55:42.041Z,96462.66
2022-08-21T00:56:14.561Z,96461.13
2022-08-21T00:56:51.234Z,96462.66
2022-08-21T00:57:32.702Z,96464.16
2022-08-21T00:58:08.118Z,96462.63
2022-08-21T00:58:43.840Z,96457.59
2022-08-21T00:59:18.886Z,96457.25
2022-08-21T00:59:53.686Z,96458.00
2022-08-21T01:00:32.745Z,96459.94
2022-08-21T01:01:08.822Z,96456.16
2022-08-21T01:01:41.076Z,96457.31
2022-08-21T01:02:13.504Z,96454.97
2022-08-21T01:02:46.087Z,96458.41
2022-08-21T01:03:23.751Z,96457.97
2022-08-21T01:03:55.888Z,96461.13
2022-08-21T01:04:27.691Z,96451.13
2022-08-21T01:04:59.468Z,96453.72
2022-08-21T01:05:31.368Z,96454.09
2022-08-21T01:06:05.152Z,96458.34
2022-08-21T01:06:36.921Z,96455.72
2022-08-21T01:07:09.457Z,96456.50
2022-08-21T01:07:42.937Z,96461.53
2022-08-21T01:08:17.985Z,96454.94
2022-08-21T01:08:49.947Z,96449.22
2022-08-21T01:09:22.026Z,96445.38
2022-08-21T01:09:53.914Z,96444.19
2022-08-21T01:10:26.544Z,96448.81
2022-08-21T01:11:00.398Z,96450.34
2022-08-21T01:11:34.915Z,96455.34
2022-08-21T01:12:07.292Z,96453.47
2022-08-21T01:12:40.852Z,96449.25
2022-08-21T01:13:15.115Z,96455.75
2022-08-21T01:13:48.091Z,96451.44
2022-08-21T01:14:20.655Z,96450.19
2022-08-21T01:14:53.896Z,96455.88
2022-08-21T01:15:31.723Z,96456.28
2022-08-21T01:16:05.946Z,96457.19
2022-08-21T01:16:37.855Z,96458.34
2022-08-21T01:17:12.339Z,96458.41
2022-08-21T01:17:44.243Z,96452.91
2022-08-21T01:18:18.062Z,96452.81
2022-08-21T01:18:51.294Z,96457.19
2022-08-21T01:19:23.622Z,96450.25
2022-08-21T01:19:59.633Z,96459.41
2022-08-21T01:20:32.263Z,96460.34
2022-08-21T01:21:07.116Z,96455.75
2022-08-21T01:21:38.929Z,96461.56
2022-08-21T01:22:10.923Z,96447.03
2022-08-21T01:22:43.326Z,96456.28
2022-08-21T01:23:15.111Z,96454.88
2022-08-21T01:23:50.625Z,96450.25
2022-08-21T01:24:23.185Z,96450.22
2022-08-21T01:24:54.950Z,96448.69
2022-08-21T01:25:26.778Z,96451.84
2022-08-21T01:25:58.658Z,96444.13
2022-08-21T01:26:34.415Z,96449.16
2022-08-21T01:27:06.654Z,96453.38
2022-08-21T01:27:38.651Z,96447.53
2022-08-21T01:28:14.488Z,96447.63
2022-08-21T01:28:57.970Z,96451.69
2022-08-21T01:29:29.657Z,96447.06
2022-08-21T01:30:10.053Z,96453.16
2022-08-21T01:30:43.715Z,96453.84
2022-08-21T01:31:18.663Z,96450.44
2022-08-21T01:31:59.927Z,96449.31
2022-08-21T01:32:32.001Z,96446.63
2022-08-21T01:33:03.920Z,96441.22
2022-08-21T01:33:36.189Z,96442.03
2022-08-21T01:34:10.332Z,96442.81
2022-08-21T01:34:44.065Z,96445.53
2022-08-21T01:35:18.470Z,96446.69
2022-08-21T01:35:50.227Z,96447.09
2022-08-21T01:36:23.245Z,96445.56
2022-08-21T01:36:54.992Z,96446.25
2022-08-21T01:37:26.830Z,96447.41
2022-08-21T01:37:58.632Z,96443.19
2022-08-21T01:38:30.491Z,96445.50
2022-08-21T01:39:05.890Z,96448.94
2022-08-21T01:39:38.584Z,96436.19
2022-08-21T01:40:12.043Z,96435.84
2022-08-21T01:40:43.887Z,96445.94
2022-08-21T01:41:16.786Z,96445.25
2022-08-21T01:41:48.516Z,96445.66
2022-08-21T01:42:20.299Z,96443.31
2022-08-21T01:42:52.121Z,96439.00
2022-08-21T01:43:23.994Z,96443.25
2022-08-21T01:44:07.968Z,96441.31
2022-08-21T01:44:39.846Z,96444.00
2022-08-21T01:45:12.376Z,96443.22
2022-08-21T01:45:44.233Z,96444.03
2022-08-21T01:46:16.706Z,96444.03
2022-08-21T01:46:49.163Z,96444.75
2022-08-21T01:47:21.033Z,96441.75
2022-08-21T01:47:52.904Z,96441.59
2022-08-21T01:48:24.701Z,96441.63
2022-08-21T01:48:56.734Z,96442.81
2022-08-21T01:49:28.696Z,96440.00
2022-08-21T01:50:00.914Z,96446.16
2022-08-21T01:50:32.853Z,96442.75
2022-08-21T01:51:05.205Z,96449.19
2022-08-21T01:51:36.951Z,96438.50
2022-08-21T01:52:09.696Z,96445.09
2022-08-21T01:52:41.692Z,96438.97
2022-08-21T01:53:15.614Z,96442.41
2022-08-21T01:53:47.475Z,96439.25
2022-08-21T01:54:19.420Z,96440.78
2022-08-21T01:54:55.256Z,96437.72
2022-08-21T01:55:27.677Z,96432.69
2022-08-21T01:55:59.503Z,96437.22
2022-08-21T01:56:37.588Z,96434.97
2022-08-21T01:57:10.480Z,96435.44
2022-08-21T01:57:42.995Z,96440.13
2022-08-21T01:58:14.748Z,96434.38
2022-08-21T01:58:48.679Z,96430.88
2022-08-21T01:59:22.522Z,96436.31
2022-08-21T01:59:54.684Z,96427.84
2022-08-21T02:00:26.778Z,96424.78
2022-08-21T02:00:58.566Z,96426.41
2022-08-21T02:01:30.327Z,96439.00
2022-08-21T02:02:02.378Z,96435.69
2022-08-21T02:02:34.281Z,96437.22
2022-08-21T02:03:06.683Z,96436.09
2022-08-21T02:03:42.094Z,96429.59
2022-08-21T02:04:13.847Z,96435.78
2022-08-21T02:04:45.577Z,96431.50
2022-08-21T02:05:18.108Z,96432.31
2022-08-21T02:05:49.805Z,96432.31
2022-08-21T02:06:21.673Z,96436.53
2022-08-21T02:06:53.450Z,96430.81
2022-08-21T02:07:25.616Z,96426.97
2022-08-21T02:07:58.092Z,96427.34
2022-08-21T02:08:30.486Z,96432.25
2022-08-21T02:09:04.868Z,96430.41
2022-08-21T02:09:36.728Z,96426.19
2022-08-21T02:10:14.546Z,96424.66
2022-08-21T02:10:49.169Z,96424.66
2022-08-21T02:11:21.489Z,96426.53
2022-08-21T02:11:53.676Z,96425.03
2022-08-21T02:12:25.427Z,96425.06
2022-08-21T02:12:58.024Z,96419.66
2022-08-21T02:13:29.939Z,96424.69
2022-08-21T02:14:01.712Z,96423.16
2022-08-21T02:14:33.826Z,96416.97
2022-08-21T02:15:08.076Z,96416.63
2022-08-21T02:15:41.874Z,96421.63
2022-08-21T02:16:19.239Z,96413.13
2022-08-21T02:16:51.438Z,96414.25
2022-08-21T02:17:48.688Z,96419.19
2022-08-21T02:18:20.412Z,96423.81
2022-08-21T02:18:52.751Z,96425.38
2022-08-21T02:19:25.246Z,96427.34
2022-08-21T02:19:57.005Z,96423.53
2022-08-21T02:20:37.083Z,96425.06
2022-08-21T02:21:08.945Z,96423.88
2022-08-21T02:21:41.617Z,96421.97
2022-08-21T02:22:13.344Z,96423.06
2022-08-21T02:22:45.203Z,96419.22
2022-08-21T02:23:17.135Z,96428.41
2022-08-21T02:23:51.887Z,96425.38
2022-08-21T02:24:23.700Z,96427.28
2022-08-21T02:24:55.510Z,96420.72
2022-08-21T02:25:28.806Z,96417.28
2022-08-21T02:26:02.651Z,96420.78
2022-08-21T02:26:35.697Z,96425.75
2022-08-21T02:27:07.620Z,96426.53
2022-08-21T02:27:44.804Z,96425.72
2022-08-21T02:28:16.840Z,96421.84
2022-08-21T02:28:48.988Z,96420.66
2022-08-21T02:29:20.780Z,96423.38
2022-08-21T02:29:52.545Z,96421.06
2022-08-21T02:30:30.360Z,96418.78
2022-08-21T02:31:03.079Z,96428.34
2022-08-21T02:31:34.975Z,96419.06
2022-08-21T02:32:06.803Z,96417.59
2022-08-21T02:32:38.604Z,96417.91
2022-08-21T02:33:12.647Z,96416.44
2022-08-21T02:33:44.672Z,96417.97
2022-08-21T02:34:16.603Z,96422.94
2022-08-21T02:34:48.401Z,96423.75
2022-08-21T02:35:20.857Z,96413.75
2022-08-21T02:35:54.083Z,96419.19
2022-08-21T02:36:26.031Z,96415.69
2022-08-21T02:36:58.725Z,96422.25
2022-08-21T02:37:31.972Z,96412.63
2022-08-21T02:38:13.011Z,96415.72
2022-08-21T02:38:45.510Z,96417.91
2022-08-21T02:39:17.260Z,96412.59
2022-08-21T02:40:01.234Z,96408.72
2022-08-21T02:40:36.769Z,96407.19
2022-08-21T02:41:13.624Z,96410.22
2022-08-21T02:41:45.597Z,96411.31
2022-08-21T02:42:19.673Z,96410.50
2022-08-21T02:42:51.967Z,96415.88
2022-08-21T02:43:26.798Z,96416.31
2022-08-21T02:43:58.728Z,96414.03
2022-08-21T02:44:34.569Z,96412.13
2022-08-21T02:45:09.451Z,96418.28
2022-08-21T02:45:41.708Z,96415.63
2022-08-21T02:46:16.609Z,96415.63
2022-08-21T02:46:48.491Z,96407.00
2022-08-21T02:47:22.037Z,96420.66
2022-08-21T02:47:57.756Z,96415.75
2022-08-21T02:48:31.703Z,96422.00
2022-08-21T02:49:06.881Z,96421.69
2022-08-21T02:53:26.855Z,96417.91
2022-08-21T02:54:19.305Z,96420.63
2022-08-21T02:54:51.287Z,96420.22
2022-08-21T02:55:27.205Z,96415.97
2022-08-21T02:56:01.345Z,96420.81
2022-08-21T02:56:33.382Z,96428.38
2022-08-21T02:57:07.903Z,96423.50
2022-08-21T02:57:47.700Z,96418.75
2022-08-21T02:58:26.843Z,96424.13
2022-08-21T02:58:59.253Z,96420.63
2022-08-21T02:59:40.997Z,96417.47
2022-08-21T03:00:19.062Z,96419.09
2022-08-21T03:01:43.997Z,96417.97
2022-08-21T03:02:39.339Z,96412.84
2022-08-21T03:03:54.332Z,96418.63
2022-08-21T03:04:33.866Z,96419.94
2022-08-21T03:05:21.094Z,96416.97
2022-08-21T03:07:04.546Z,96414.31
2022-08-21T03:08:14.806Z,96410.84
2022-08-21T03:08:58.582Z,96415.13
2022-08-21T03:09:30.650Z,96418.22
2022-08-21T03:10:02.930Z,96420.03
2022-08-21T03:10:34.869Z,96422.66
2022-08-21T03:11:07.072Z,96425.38
2022-08-21T03:11:39.768Z,96426.94
2022-08-21T03:12:11.600Z,96421.16
2022-08-21T03:12:43.967Z,96426.50
2022-08-21T03:13:16.891Z,96427.31
2022-08-21T03:13:48.704Z,96430.09
2022-08-21T03:14:20.605Z,96418.59
2022-08-21T03:14:52.456Z,96421.31
2022-08-21T03:15:25.363Z,96416.31
2022-08-21T03:15:57.654Z,96415.16
2022-08-21T03:16:34.382Z,96418.59
2022-08-21T03:17:08.107Z,96423.50
2022-08-21T03:17:40.312Z,96415.06
2022-08-21T03:18:13.057Z,96421.16
2022-08-21T03:18:44.870Z,96426.69
2022-08-21T03:19:17.985Z,96413.56
2022-08-21T03:19:49.872Z,96419.00
2022-08-21T03:20:27.689Z,96420.91
2022-08-21T03:20:59.476Z,96413.28
2022-08-21T03:21:31.555Z,96415.56
2022-08-21T03:22:03.441Z,96416.72
2022-08-21T03:22:35.605Z,96422.91
2022-08-21T03:23:13.285Z,96415.63
2022-08-21T03:23:47.569Z,96416.31
2022-08-21T03:24:21.248Z,96420.13
2022-08-21T03:24:54.814Z,96422.41
2022-08-21T03:25:39.962Z,96415.56
2022-08-21T03:26:13.408Z,96420.22
2022-08-21T03:26:45.773Z,96416.72
2022-08-21T03:27:18.412Z,96414.38
2022-08-21T03:27:55.929Z,96411.66
2022-08-21T03:28:30.706Z,96412.81
2022-08-21T03:29:02.960Z,96410.91
2022-08-21T03:29:34.744Z,96415.97
2022-08-21T03:30:08.404Z,96414.38
2022-08-21T03:30:45.106Z,96417.06
2022-08-21T03:31:18.645Z,96413.56
2022-08-21T03:31:50.461Z,96414.34
2022-08-21T03:32:22.351Z,96413.97
2022-08-21T03:32:54.654Z,96419.38
2022-08-21T03:33:28.470Z,96417.78
2022-08-21T03:34:00.361Z,96409.69
2022-08-21T03:34:32.239Z,96420.84
2022-08-21T03:35:05.871Z,96420.91
2022-08-21T03:35:38.102Z,96413.56
2022-08-21T03:36:11.037Z,96416.31
2022-08-21T03:36:43.025Z,96411.22
2022-08-21T03:37:16.048Z,96415.84
2022-08-21T03:37:48.311Z,96414.97
2022-08-21T03:38:25.899Z,96413.38
2022-08-21T03:38:58.542Z,96420.72
2022-08-21T03:39:30.833Z,96420.75
2022-08-21T03:40:05.485Z,96415.97
2022-08-21T03:40:37.567Z,96419.00
2022-08-21T03:41:09.881Z,96422.94
2022-08-21T03:41:42.345Z,96428.00
2022-08-21T03:42:14.206Z,96426.41
2022-08-21T03:42:47.987Z,96423.44
2022-08-21T03:43:20.312Z,96422.53
2022-08-21T03:43:52.513Z,96416.41
2022-08-21T03:44:24.589Z,96423.31
2022-08-21T03:44:56.539Z,96419.47
2022-08-21T03:45:28.670Z,96426.81
2022-08-21T03:46:04.588Z,96418.06
2022-08-21T03:46:36.562Z,96425.38
2022-08-21T03:47:08.894Z,96425.78
2022-08-21T03:48:01.581Z,96423.94
2022-08-21T03:48:35.748Z,96424.97
2022-08-21T03:49:08.167Z,96422.16
2022-08-21T03:49:40.914Z,96422.53
2022-08-21T03:50:12.761Z,96430.69
2022-08-21T03:50:47.681Z,96424.50
2022-08-21T03:51:20.025Z,96430.72
2022-08-21T03:51:59.833Z,96429.22
2022-08-21T03:52:31.865Z,96433.06
2022-08-21T03:53:04.030Z,96425.78
2022-08-21T03:53:36.080Z,96434.63
2022-08-21T03:54:07.864Z,96431.16
2022-08-21T03:54:41.341Z,96427.66
2022-08-21T03:55:13.293Z,96421.91
2022-08-21T03:55:47.826Z,96421.59
2022-08-21T03:56:19.660Z,96424.19
2022-08-21T03:56:51.897Z,96427.31
2022-08-21T03:57:23.860Z,96429.53
2022-08-21T03:57:56.701Z,96426.81
2022-08-21T03:58:29.634Z,96421.47
2022-08-21T03:59:02.234Z,96424.59
2022-08-21T03:59:34.137Z,96424.97
2022-08-21T04:00:09.961Z,96422.66
2022-08-21T04:00:41.831Z,96424.97
2022-08-21T04:01:14.166Z,96429.75
2022-08-21T04:01:57.373Z,96422.13
2022-08-21T04:02:29.229Z,96419.91
2022-08-21T04:03:01.365Z,96420.59
2022-08-21T04:03:36.142Z,96421.41
2022-08-21T04:04:07.926Z,96423.72
2022-08-21T04:04:42.878Z,96419.91
2022-08-21T04:05:27.999Z,96422.28
2022-08-21T04:06:00.234Z,96423.41
2022-08-21T04:06:37.657Z,96423.34
2022-08-21T04:07:09.857Z,96423.34
2022-08-21T04:07:41.701Z,96424.88
2022-08-21T04:08:15.095Z,96427.19
2022-08-21T04:08:47.032Z,96421.00
2022-08-21T04:09:19.628Z,96428.72
2022-08-21T04:09:51.673Z,96426.47
2022-08-21T04:10:25.535Z,96421.91
2022-08-21T04:10:59.272Z,96426.03
2022-08-21T04:11:31.046Z,96423.00
2022-08-21T04:12:03.231Z,96426.88
2022-08-21T04:12:35.148Z,96431.50
2022-08-21T04:13:09.153Z,96428.41
2022-08-21T04:13:44.497Z,96430.69
2022-08-21T04:14:17.495Z,96432.22
2022-08-21T04:14:49.270Z,96435.72
2022-08-21T04:15:23.437Z,96434.22
2022-08-21T04:15:56.707Z,96437.28
2022-08-21T04:16:28.465Z,96429.97
2022-08-21T04:17:00.559Z,96437.97
2022-08-21T04:17:32.359Z,96437.50
2022-08-21T04:18:05.085Z,96436.44
2022-08-21T04:18:36.913Z,96436.81
2022-08-21T04:19:09.748Z,96435.63
2022-08-21T04:19:41.903Z,96440.66
2022-08-21T04:20:13.781Z,96440.63
2022-08-21T04:20:50.275Z,96436.28
2022-08-21T04:21:24.249Z,96438.88
2022-08-21T04:21:59.817Z,96440.53
2022-08-21T04:22:31.580Z,96437.94
2022-08-21T04:23:04.384Z,96432.59
2022-08-21T04:23:36.298Z,96439.19
2022-08-21T04:24:10.599Z,96433.38
2022-08-21T04:24:42.423Z,96434.53
2022-08-21T04:25:15.710Z,96428.59
2022-08-21T04:25:47.686Z,96436.31
2022-08-21T04:26:19.501Z,96433.28
2022-08-21T04:26:51.268Z,96442.56
2022-08-21T04:27:23.004Z,96436.47
2022-08-21T04:27:54.790Z,96441.44
2022-08-21T04:28:30.344Z,96439.44
2022-08-21T04:29:04.380Z,96437.56
2022-08-21T04:29:39.847Z,96440.28
2022-08-21T04:30:12.392Z,96429.53
2022-08-21T04:30:44.536Z,96439.09
2022-08-21T04:31:16.318Z,96440.66
2022-08-21T04:31:48.109Z,96441.13
2022-08-21T04:32:26.106Z,96436.47
2022-08-21T04:32:59.912Z,96441.44
2022-08-21T04:33:31.968Z,96439.94
2022-08-21T04:34:05.710Z,96442.63
2022-08-21T04:34:37.530Z,96443.09
2022-08-21T04:35:10.880Z,96443.03
2022-08-21T04:35:43.635Z,96442.25
2022-08-21T04:36:18.755Z,96444.16
2022-08-21T04:36:56.155Z,96449.97
2022-08-21T04:37:28.220Z,96442.56
2022-08-21T04:38:00.032Z,96443.81
2022-08-21T04:38:37.554Z,96446.13
2022-08-21T04:39:10.199Z,96449.56
2022-08-21T04:39:42.868Z,96444.09
2022-08-21T04:40:17.587Z,96449.47
2022-08-21T04:40:51.076Z,96452.56
2022-08-21T04:41:28.030Z,96455.69
2022-08-21T04:42:00.161Z,96453.28
2022-08-21T04:42:32.036Z,96454.84
2022-08-21T04:43:07.295Z,96452.56
2022-08-21T04:43:39.934Z,96452.50
2022-08-21T04:44:12.689Z,96454.81
2022-08-21T04:44:44.452Z,96448.59
2022-08-21T04:45:28.196Z,96456.00
2022-08-21T04:46:01.300Z,96450.16
2022-08-21T04:46:33.123Z,96450.19
2022-08-21T04:47:05.052Z,96452.84
2022-08-21T04:47:36.840Z,96449.03
2022-08-21T04:48:27.293Z,96453.22
2022-08-21T04:48:59.075Z,96455.53
2022-08-21T04:49:31.396Z,96446.72
2022-08-21T04:50:03.498Z,96449.31
2022-08-21T04:50:39.554Z,96448.56
2022-08-21T04:51:20.632Z,96446.28
2022-08-21T04:51:52.641Z,96448.59
2022-08-21T04:52:25.734Z,96452.09
2022-08-21T04:52:58.430Z,96456.81
2022-08-21T04:53:38.993Z,96447.13
2022-08-21T04:54:15.553Z,96454.47
2022-08-21T04:54:54.337Z,96452.13
2022-08-21T04:55:28.829Z,96452.50
2022-08-21T04:56:10.830Z,96450.91
2022-08-21T04:56:46.549Z,96454.06
2022-08-21T04:57:18.758Z,96452.97
2022-08-21T04:57:52.403Z,96447.97
2022-08-21T04:58:27.917Z,96452.63
2022-08-21T04:59:04.765Z,96452.97
2022-08-21T04:59:46.011Z,96459.56
2022-08-21T05:00:19.661Z,96454.25
2022-08-21T05:00:54.874Z,96452.16
2022-08-21T05:01:29.161Z,96451.44
2022-08-21T05:02:02.907Z,96457.63
2022-08-21T05:02:35.065Z,96457.31
2022-08-21T05:03:08.898Z,96463.84
2022-08-21T05:03:42.079Z,96460.66
2022-08-21T05:04:17.670Z,96464.84
2022-08-21T05:04:54.564Z,96465.78
2022-08-21T05:05:29.927Z,96470.13
2022-08-21T05:06:06.403Z,96459.66
2022-08-21T05:06:40.667Z,96461.91
2022-08-21T05:07:41.612Z,96470.13
2022-08-21T05:08:15.325Z,96461.84
2022-08-21T05:08:49.643Z,96471.16
2022-08-21T05:09:22.531Z,96469.34
2022-08-21T05:09:54.920Z,96471.28
2022-08-21T05:10:27.138Z,96470.31
2022-08-21T05:11:00.697Z,96472.03
2022-08-21T05:11:33.127Z,96465.97
2022-08-21T05:12:05.698Z,96475.19
2022-08-21T05:12:37.574Z,96466.19
2022-08-21T05:13:09.807Z,96476.94
2022-08-21T05:13:42.338Z,96471.78
2022-08-21T05:14:14.207Z,96474.19
2022-08-21T05:14:45.983Z,96465.91
2022-08-21T05:15:18.183Z,96457.13
2022-08-21T05:15:49.925Z,96462.88
2022-08-21T05:16:36.960Z,96460.03
2022-08-21T05:17:10.616Z,96455.19
2022-08-21T05:17:42.628Z,96456.44
2022-08-21T05:18:14.439Z,96456.06
2022-08-21T05:18:46.271Z,96452.19
2022-08-21T05:19:18.234Z,96455.78
2022-08-21T05:19:50.338Z,96459.06
2022-08-21T05:20:22.275Z,96452.19
2022-08-21T05:20:56.645Z,96448.31
2022-08-21T05:21:28.416Z,96449.00
2022-08-21T05:22:00.287Z,96457.44
2022-08-21T05:22:32.130Z,96448.69
2022-08-21T05:23:09.590Z,96447.25
2022-08-21T05:23:41.384Z,96440.75
2022-08-21T05:24:13.190Z,96443.75
2022-08-21T05:24:44.950Z,96439.56
2022-08-21T05:25:17.401Z,96438.78
2022-08-21T05:25:54.647Z,96441.47
2022-08-21T05:26:26.431Z,96438.41
2022-08-21T05:26:58.664Z,96437.66
2022-08-21T05:27:31.665Z,96435.34
2022-08-21T05:28:05.116Z,96443.13
2022-08-21T05:28:38.019Z,96440.03
2022-08-21T05:29:14.696Z,96440.03
2022-08-21T05:29:46.876Z,96435.00
2022-08-21T05:30:18.703Z,96430.72
2022-08-21T05:30:50.687Z,96430.75
2022-08-21T05:31:23.260Z,96432.69
2022-08-21T05:31:55.052Z,96432.66
2022-08-21T05:32:28.700Z,96432.66
2022-08-21T05:33:02.476Z,96432.28
2022-08-21T05:33:34.419Z,96430.34
2022-08-21T05:34:07.771Z,96435.78
2022-08-21T05:34:39.629Z,96429.97
2022-08-21T05:35:12.260Z,96433.47
2022-08-21T05:35:44.307Z,96437.34
2022-08-21T05:36:16.086Z,96427.66
2022-08-21T05:36:47.930Z,96433.03
2022-08-21T05:37:19.767Z,96429.97
2022-08-21T05:37:51.568Z,96433.41
2022-08-21T05:38:28.610Z,96427.69
2022-08-21T05:39:00.669Z,96426.06
2022-08-21T05:40:21.720Z,96429.19
2022-08-21T05:40:25.165Z,96434.56
2022-08-21T05:40:57.593Z,96429.22
2022-08-21T05:41:29.705Z,96430.75
2022-08-21T05:42:01.861Z,96429.59
2022-08-21T05:42:33.878Z,96429.53
2022-08-21T05:43:05.906Z,96427.56
2022-08-21T05:43:37.890Z,96429.09
2022-08-21T05:44:10.123Z,96425.94
2022-08-21T05:44:42.596Z,96419.81
2022-08-21T05:45:16.145Z,96429.81
2022-08-21T05:46:09.562Z,96419.22
2022-08-21T05:46:41.702Z,96427.44
2022-08-21T05:47:13.979Z,96420.31
2022-08-21T05:47:48.345Z,96419.19
2022-08-21T05:48:23.442Z,96420.84
2022-08-21T05:48:55.301Z,96417.38
2022-08-21T05:49:27.330Z,96418.72
2022-08-21T05:49:59.281Z,96427.88
2022-08-21T05:50:33.707Z,96421.88
2022-08-21T05:51:09.605Z,96423.44
2022-08-21T05:51:43.246Z,96420.88
2022-08-21T05:52:22.511Z,96427.97
2022-08-21T05:54:08.012Z,96422.31
2022-08-21T05:56:21.731Z,96420.13
2022-08-21T05:57:04.163Z,96430.13
2022-08-21T05:57:45.093Z,96429.06
2022-08-21T05:58:44.593Z,96424.88
2022-08-21T06:00:29.486Z,96424.16
2022-08-21T06:01:03.380Z,96424.53
2022-08-21T06:01:35.461Z,96426.84
2022-08-21T06:02:33.786Z,96425.66
2022-08-21T06:03:11.192Z,96415.97
2022-08-21T06:03:43.768Z,96417.81
2022-08-21T06:04:16.002Z,96427.44
2022-08-21T06:04:48.471Z,96425.13
2022-08-21T06:05:36.403Z,96423.31
2022-08-21T06:06:10.877Z,96409.31
2022-08-21T06:06:42.984Z,96417.69
2022-08-21T06:07:15.954Z,96422.50
2022-08-21T06:07:47.868Z,96419.09
2022-08-21T06:08:20.411Z,96423.31
2022-08-21T06:08:53.696Z,96417.16
2022-08-21T06:09:25.644Z,96419.84
2022-08-21T06:09:57.782Z,96424.09
2022-08-21T06:10:29.657Z,96422.22
2022-08-21T06:11:03.558Z,96427.94
2022-08-21T06:11:35.745Z,96415.88
2022-08-21T06:12:10.113Z,96421.41
2022-08-21T06:12:42.056Z,96419.44
2022-08-21T06:13:16.460Z,96427.97
2022-08-21T06:13:48.219Z,96418.69
2022-08-21T06:14:20.016Z,96424.47
2022-08-21T06:14:52.964Z,96422.97
2022-08-21T06:15:24.702Z,96425.22
2022-08-21T06:16:15.765Z,96424.06
2022-08-21T06:16:47.992Z,96429.94
2022-08-21T06:17:19.866Z,96431.38
2022-08-21T06:17:51.585Z,96422.78
2022-08-21T06:18:23.344Z,96426.91
2022-08-21T06:18:58.442Z,96423.06
2022-08-21T06:19:32.614Z,96426.81
2022-08-21T06:20:05.509Z,96427.53
2022-08-21T06:20:37.909Z,96431.78
2022-08-21T06:21:09.890Z,96431.88
2022-08-21T06:21:41.629Z,96438.41
2022-08-21T06:22:13.343Z,96434.63
2022-08-21T06:22:45.120Z,96436.91
2022-08-21T06:23:16.899Z,96438.78
2022-08-21T06:23:48.649Z,96433.81
2022-08-21T06:24:20.384Z,96436.94
2022-08-21T06:24:52.234Z,96438.88
2022-08-21T06:25:25.085Z,96436.91
2022-08-21T06:25:57.472Z,96433.53
2022-08-21T06:26:30.150Z,96434.22
2022-08-21T06:27:09.477Z,96432.59
2022-08-21T06:27:41.399Z,96431.69
2022-08-21T06:28:13.578Z,96427.00
2022-08-21T06:28:45.412Z,96429.06
2022-08-21T06:29:17.898Z,96423.44
2022-08-21T06:29:49.618Z,96424.19
2022-08-21T06:30:21.512Z,96426.97
2022-08-21T06:30:53.316Z,96433.69
2022-08-21T06:31:28.290Z,96432.72
2022-08-21T06:32:00.076Z,96423.47
2022-08-21T06:32:33.951Z,96428.69
2022-08-21T06:33:07.069Z,96420.91
2022-08-21T06:33:38.945Z,96417.09
2022-08-21T06:34:11.237Z,96423.91
2022-08-21T06:34:43.207Z,96424.25
2022-08-21T06:35:14.965Z,96421.34
2022-08-21T06:35:46.722Z,96425.88
2022-08-21T06:36:19.472Z,96419.41
2022-08-21T06:36:51.215Z,96418.50
2022-08-21T06:37:24.531Z,96416.03
2022-08-21T06:37:59.956Z,96427.41
2022-08-21T06:38:31.802Z,96420.34
2022-08-21T06:39:16.288Z,96431.09
2022-08-21T06:39:56.245Z,96417.00
2022-08-21T06:40:34.803Z,96420.81
2022-08-21T06:41:08.338Z,96417.16
2022-08-21T06:41:42.005Z,96424.38
2022-08-21T06:42:16.713Z,96418.53
2022-08-21T06:42:49.992Z,96419.88
2022-08-21T06:43:21.783Z,96418.56
2022-08-21T06:44:07.592Z,96420.91
2022-08-21T06:44:39.328Z,96416.47
2022-08-21T06:45:11.778Z,96417.06
2022-08-21T06:45:45.820Z,96414.66
2022-08-21T06:46:17.675Z,96415.31
2022-08-21T06:46:49.477Z,96412.41
2022-08-21T06:47:21.206Z,96412.66
2022-08-21T06:47:53.006Z,96417.88
2022-08-21T06:48:24.840Z,96419.28
2022-08-21T06:48:57.724Z,96424.19